Union, WV

3:56 AM EST on November 27, 2014 (GMT -0500)
Virginia Tech | Change Station
CLOSE
Current Station
Airport
Location: Blacksburg,
Elevation: 2133 ft
Nearby Weather Stations

Elev 2133 ft 37.21 °N, 80.41 °W | Updated 21 minutes ago

Overcast
Overcast
34 °F
Feels Like 34 °F
N
0
Wind Variable Wind from North

Today
High -- | Low -- °F
--% Chance of Precip.
Yesterday
High -- | Low -- °F
Precip. -- in
7:14 AM 5:04 PM
Waxing Crescent, 27% visible
Pressure 29.97 in
Visibility 2.0 miles
Clouds Scattered Clouds 5500 ft
Mostly Cloudy 7000 ft
Overcast 8000 ft
Dew Point 34 °F
Humidity 100%
Rainfall 0.00 in
Snow Depth Not available.
UV 0 out of 12
Pollen .10 out of 12
Air Quality Not available.
Flu Activity Not available.
METAR KBCB 270835Z AUTO 00000KT 2SM BR SCT055 BKN070 OVC080 01/01 A2997 RMK AO2 VIS 1 3/4V3

More Conditions Fewer Conditions

Pressure 29.97 in
Visibility 2.0 miles
Clouds Scattered Clouds 5500 ft
Mostly Cloudy 7000 ft
Overcast 8000 ft
Dew Point 34 °F
Humidity 100%
Rainfall 0.00 in
Snow Depth Not available.
UV 0 out of 12
Pollen .10 out of 12
Air Quality Not available.
Flu Activity Not available.
METAR KBCB 270835Z AUTO 00000KT 2SM BR SCT055 BKN070 OVC080 01/01 A2997 RMK AO2 VIS 1 3/4V3

More Conditions Fewer Conditions

10-Day Weather Forecast

Almanac

Astronomy

Nov. 27, 2014 Rise Set
Actual Time
Civil Twilight
Nautical Twilight
Astronomical Twilight
Moon
Length of Visible Light
Length of Day
Tomorrow will be .
, % of the Moon is Illuminated

Today's Extremes

State Highs State Lows

Community

WunderPhotos

Upload Photos

1,773,965 photos uploaded!

WunderBlogs® & News

Nearby

Air Quality

  Air Quality AQ Index Pollutant
Not available.

Snow Depth

Station Depth Elevation

Earthquake Activity

City Distance Mag. Time & Date
Minimum magnitude displayed is 2.5.

Coastal Water Temperatures

Place Temperature

Nearby Weather Stations